Time;durP1;ratioP1;P1;durP2;ratioP2;P2;SDS_P1;SDS_P2;PMS_P1;PMS_P2;Temp;Humidity;BMP_temperature;BMP_pressure;BME280_temperature;BME280_humidity;BME280_pressure;Samples;Min_cycle;Max_cycle;Signal;HPM_P1;HPM_P2
2023/09/20 00:01:43;;;;;;;16.98;7.22;;;15.90;99.90;;;;;;5159062;27;20473;-30
2023/09/20 00:04:09;;;;;;;11.10;4.63;;;16.00;99.90;;;;;;5159275;27;20141;-29
2023/09/20 00:06:36;;;;;;;13.38;5.18;;;15.80;99.90;;;;;;5158973;27;20107;-30
2023/09/20 00:09:02;;;;;;;14.70;6.10;;;15.90;99.90;;;;;;5157728;27;20050;-30
2023/09/20 00:11:28;;;;;;;15.52;6.15;;;15.70;99.90;;;;;;5157458;27;20070;-28
2023/09/20 00:13:53;;;;;;;13.93;5.72;;;15.90;99.90;;;;;;5158252;27;20047;-28
2023/09/20 00:16:19;;;;;;;13.07;4.93;;;15.70;99.90;;;;;;5158196;27;20074;-28
2023/09/20 00:18:45;;;;;;;14.88;5.95;;;15.90;99.90;;;;;;5140196;27;20046;-29
2023/09/20 00:21:11;;;;;;;12.27;4.90;;;16.00;99.90;;;;;;5157658;27;20045;-29
2023/09/20 00:23:37;;;;;;;9.73;4.53;;;16.00;99.90;;;;;;5158648;27;20130;-29
2023/09/20 00:26:03;;;;;;;16.25;5.88;;;16.00;99.90;;;;;;5140023;27;20046;-29
2023/09/20 00:28:31;;;;;;;11.23;5.15;;;15.80;99.90;;;;;;5157002;27;20042;-28
2023/09/20 00:30:57;;;;;;;16.10;6.65;;;16.00;99.90;;;;;;5157271;27;20495;-28
2023/09/20 00:33:23;;;;;;;14.40;6.70;;;15.80;99.90;;;;;;5157332;27;20047;-28
2023/09/20 00:35:49;;;;;;;15.68;6.55;;;15.80;99.90;;;;;;5158390;27;20091;-28
2023/09/20 00:38:16;;;;;;;18.42;6.55;;;15.60;99.90;;;;;;5157643;27;20187;-29
2023/09/20 00:40:43;;;;;;;15.55;6.68;;;15.60;99.90;;;;;;5158161;27;20099;-29
2023/09/20 00:43:11;;;;;;;16.63;6.45;;;15.90;99.90;;;;;;5158256;27;20054;-28
2023/09/20 00:45:40;;;;;;;15.98;5.30;;;15.70;99.90;;;;;;5159059;27;20390;-28
2023/09/20 00:48:07;;;;;;;12.98;6.28;;;16.00;99.90;;;;;;5158146;27;20096;-28
2023/09/20 00:50:35;;;;;;;11.43;5.07;;;16.00;99.90;;;;;;5158022;27;20534;-30
2023/09/20 00:53:06;;;;;;;19.75;5.45;;;15.90;99.90;;;;;;5158147;27;20049;-28
2023/09/20 00:55:34;;;;;;;14.10;4.90;;;16.10;99.90;;;;;;5157813;27;20527;-28
2023/09/20 00:58:04;;;;;;;13.90;5.30;;;16.20;99.90;;;;;;5157970;27;20084;-30
2023/09/20 01:00:32;;;;;;;16.42;5.00;;;16.20;99.90;;;;;;5158826;27;20099;-29
2023/09/20 01:03:00;;;;;;;12.15;5.40;;;16.10;99.90;;;;;;5157942;27;20047;-29
2023/09/20 01:05:27;;;;;;;11.45;5.25;;;16.30;99.90;;;;;;5157802;27;20043;-28
2023/09/20 01:07:57;;;;;;;13.35;4.93;;;16.30;99.90;;;;;;5156622;27;20099;-29
2023/09/20 01:10:25;;;;;;;13.63;4.88;;;16.30;99.90;;;;;;5158377;27;20038;-30
2023/09/20 01:12:54;;;;;;;13.98;5.05;;;16.20;99.90;;;;;;5156439;27;20058;-30
2023/09/20 01:15:23;;;;;;;11.30;4.70;;;16.20;99.90;;;;;;5156666;27;20195;-28
2023/09/20 01:17:58;;;;;;;11.48;4.78;;;16.30;99.90;;;;;;5156421;27;20095;-29
2023/09/20 01:20:25;;;;;;;10.88;5.00;;;16.20;99.90;;;;;;5157666;27;20162;-29
2023/09/20 01:22:59;;;;;;;13.55;4.88;;;16.30;99.90;;;;;;5139420;27;20086;-29
2023/09/20 01:25:35;;;;;;;11.32;4.70;;;16.10;99.90;;;;;;5157524;27;20129;-29
2023/09/20 01:28:06;;;;;;;20.48;6.25;;;16.30;99.90;;;;;;5155853;27;20046;-28
2023/09/20 01:30:35;;;;;;;16.45;6.15;;;16.00;99.90;;;;;;5138975;27;20441;-29
2023/09/20 01:33:06;;;;;;;10.98;5.45;;;15.90;99.90;;;;;;5156318;27;20472;-28
2023/09/20 01:35:33;;;;;;;16.73;6.07;;;15.90;99.90;;;;;;5157942;27;20099;-29
2023/09/20 01:37:58;;;;;;;11.32;5.47;;;16.10;99.90;;;;;;5155714;27;20051;-29
2023/09/20 01:40:28;;;;;;;20.90;6.45;;;16.20;99.90;;;;;;5157110;27;20129;-29
2023/09/20 01:42:57;;;;;;;17.23;5.80;;;16.00;99.90;;;;;;5156787;27;20572;-28
2023/09/20 01:45:23;;;;;;;14.35;5.07;;;16.00;99.90;;;;;;5157022;27;20114;-29
2023/09/20 01:47:49;;;;;;;13.18;4.75;;;16.00;99.90;;;;;;5156649;27;20043;-28
2023/09/20 01:50:19;;;;;;;15.20;5.55;;;16.10;99.90;;;;;;5155687;27;20043;-28
2023/09/20 01:52:49;;;;;;;12.38;5.32;;;16.20;99.90;;;;;;5156163;27;20054;-29
2023/09/20 01:55:22;;;;;;;14.43;4.88;;;16.10;99.90;;;;;;5121555;27;20147;-29
2023/09/20 01:57:48;;;;;;;15.77;6.25;;;16.20;99.90;;;;;;5156780;27;20472;-30
2023/09/20 02:00:26;;;;;;;18.80;5.20;;;16.10;99.90;;;;;;5156792;27;20054;-29
2023/09/20 02:02:54;;;;;;;13.15;4.32;;;16.20;99.90;;;;;;5155528;27;20495;-29
2023/09/20 02:05:21;;;;;;;16.55;5.38;;;16.10;99.90;;;;;;5155502;27;20053;-29
2023/09/20 02:07:48;;;;;;;13.60;4.80;;;16.20;99.90;;;;;;5155466;27;20091;-29
2023/09/20 02:10:16;;;;;;;14.13;4.93;;;16.10;99.90;;;;;;5155562;27;20078;-29
2023/09/20 02:12:46;;;;;;;12.57;4.03;;;16.20;99.90;;;;;;5155136;27;20377;-29
2023/09/20 02:15:12;;;;;;;11.10;5.40;;;16.20;99.90;;;;;;5156513;27;20133;-29
2023/09/20 02:17:39;;;;;;;12.43;3.90;;;16.20;99.90;;;;;;5156320;27;20043;-29
2023/09/20 02:20:09;;;;;;;14.40;3.97;;;16.20;99.90;;;;;;5155354;27;20082;-29
2023/09/20 02:22:40;;;;;;;12.65;3.78;;;16.20;99.90;;;;;;5156348;27;20054;-29
2023/09/20 02:25:11;;;;;;;14.50;4.05;;;16.20;99.90;;;;;;5155907;27;20046;-29
2023/09/20 02:27:41;;;;;;;11.32;3.83;;;16.30;99.90;;;;;;5156305;27;20034;-30
2023/09/20 02:30:14;;;;;;;14.80;4.10;;;16.30;99.90;;;;;;5137925;27;20055;-29
2023/09/20 02:32:40;;;;;;;14.18;3.95;;;16.30;99.90;;;;;;5139258;27;20046;-29
2023/09/20 02:35:06;;;;;;;12.45;4.35;;;16.30;99.90;;;;;;5156909;27;20349;-30
2023/09/20 02:37:33;;;;;;;10.25;3.70;;;16.20;99.90;;;;;;5155953;27;20095;-31
2023/09/20 02:39:59;;;;;;;11.32;4.18;;;16.20;99.90;;;;;;5154817;27;20400;-30
2023/09/20 02:42:26;;;;;;;8.77;3.67;;;16.20;99.90;;;;;;5155912;27;20047;-31
2023/09/20 02:44:53;;;;;;;13.65;4.68;;;16.20;99.90;;;;;;5155920;27;20088;-29
2023/09/20 02:47:19;;;;;;;15.98;3.85;;;16.30;99.90;;;;;;5120665;27;20085;-29
2023/09/20 02:49:48;;;;;;;17.85;5.55;;;16.20;99.90;;;;;;5155794;27;20039;-31
2023/09/20 02:52:16;;;;;;;14.65;4.63;;;16.20;99.90;;;;;;5156364;27;20039;-29
2023/09/20 02:54:43;;;;;;;11.80;3.97;;;16.30;99.90;;;;;;5155758;27;20043;-30
2023/09/20 02:57:11;;;;;;;10.75;4.00;;;16.30;99.90;;;;;;5155644;27;20104;-30
2023/09/20 02:59:38;;;;;;;13.23;4.93;;;16.20;99.90;;;;;;5155235;27;20095;-29
2023/09/20 03:02:05;;;;;;;13.43;4.88;;;16.20;99.90;;;;;;5155685;27;20050;-30
2023/09/20 03:04:31;;;;;;;10.27;4.28;;;16.20;99.90;;;;;;5154694;27;20078;-29
2023/09/20 03:06:56;;;;;;;10.70;3.38;;;16.20;99.90;;;;;;5155585;27;20086;-30
2023/09/20 03:09:24;;;;;;;12.25;4.07;;;16.20;99.90;;;;;;5155735;27;20051;-30
2023/09/20 03:11:51;;;;;;;11.15;3.75;;;16.20;99.90;;;;;;5154426;27;20108;-29
2023/09/20 03:14:17;;;;;;;11.23;3.53;;;16.20;99.90;;;;;;5156031;27;20437;-30
2023/09/20 03:16:44;;;;;;;9.23;4.10;;;16.30;99.90;;;;;;5154442;27;20050;-32
2023/09/20 03:19:12;;;;;;;10.13;3.40;;;16.30;99.90;;;;;;5155435;27;20050;-31
2023/09/20 03:21:41;;;;;;;8.68;3.58;;;16.30;99.90;;;;;;5156055;27;20089;-30
2023/09/20 03:24:07;;;;;;;14.27;5.30;;;16.30;99.90;;;;;;5154401;27;20055;-31
2023/09/20 03:26:35;;;;;;;10.20;3.55;;;16.30;99.90;;;;;;5154130;27;20078;-30
2023/09/20 03:29:04;;;;;;;9.98;2.95;;;16.40;99.90;;;;;;5155340;27;20043;-30
2023/09/20 03:31:34;;;;;;;11.02;3.10;;;16.40;99.90;;;;;;5155868;27;20250;-30
2023/09/20 03:33:59;;;;;;;13.77;3.90;;;16.40;99.90;;;;;;5155860;27;20047;-31
2023/09/20 03:36:26;;;;;;;11.25;3.50;;;16.40;99.90;;;;;;5155214;27;20049;-31
2023/09/20 03:38:55;;;;;;;10.68;3.92;;;16.40;99.90;;;;;;5154753;27;20376;-30
2023/09/20 03:41:20;;;;;;;12.52;3.88;;;16.40;99.90;;;;;;5153927;27;20047;-30
2023/09/20 03:43:47;;;;;;;11.25;3.25;;;16.40;99.90;;;;;;5156052;27;20057;-30
2023/09/20 03:46:13;;;;;;;10.00;2.92;;;16.40;99.90;;;;;;5154940;27;20492;-31
2023/09/20 03:48:39;;;;;;;8.77;3.20;;;16.40;99.90;;;;;;5155154;27;20121;-30
2023/09/20 03:51:06;;;;;;;12.57;3.83;;;16.40;99.90;;;;;;5155584;27;20134;-31
2023/09/20 03:53:34;;;;;;;8.85;2.92;;;16.40;99.90;;;;;;5155101;27;20058;-32
2023/09/20 03:55:59;;;;;;;10.80;3.03;;;16.40;99.90;;;;;;5155345;27;20046;-31
2023/09/20 03:58:25;;;;;;;11.35;4.05;;;16.40;99.90;;;;;;5154917;27;20050;-30
2023/09/20 04:00:51;;;;;;;11.43;3.45;;;16.40;99.90;;;;;;5153811;27;20125;-30
2023/09/20 04:03:17;;;;;;;11.05;4.00;;;16.30;99.90;;;;;;5155035;27;20039;-31
2023/09/20 04:05:43;;;;;;;9.55;4.22;;;16.30;99.90;;;;;;5155335;27;20043;-31
2023/09/20 04:08:08;;;;;;;12.93;3.97;;;16.30;99.90;;;;;;5136607;27;20035;-31
2023/09/20 04:10:35;;;;;;;13.52;3.70;;;16.30;99.90;;;;;;5154955;27;20042;-31
2023/09/20 04:13:02;;;;;;;15.85;3.78;;;16.20;99.90;;;;;;5136321;27;20054;-31
2023/09/20 04:15:29;;;;;;;16.15;4.05;;;16.30;99.90;;;;;;5156607;27;20163;-31
2023/09/20 04:17:54;;;;;;;8.85;3.78;;;16.30;99.90;;;;;;5159308;27;20129;-31
2023/09/20 04:20:21;;;;;;;12.13;3.35;;;16.30;99.90;;;;;;5158774;27;20441;-30
2023/09/20 04:22:49;;;;;;;13.50;3.42;;;16.20;99.90;;;;;;5158361;27;20086;-31
2023/09/20 04:25:15;;;;;;;9.23;3.47;;;16.20;99.90;;;;;;5157632;27;20126;-32
2023/09/20 04:27:41;;;;;;;10.98;3.85;;;16.20;99.90;;;;;;5158587;27;20144;-30
2023/09/20 04:30:08;;;;;;;13.95;4.22;;;16.20;99.90;;;;;;5159333;27;20096;-31
2023/09/20 04:32:35;;;;;;;10.00;3.22;;;16.20;99.90;;;;;;5158830;27;20502;-31
2023/09/20 04:35:02;;;;;;;10.73;3.35;;;16.20;99.90;;;;;;5158465;27;20472;-31
2023/09/20 04:37:28;;;;;;;14.00;4.15;;;16.20;99.90;;;;;;5157366;27;20054;-31
2023/09/20 04:39:54;;;;;;;11.10;3.75;;;16.10;99.90;;;;;;5158962;27;20042;-31
2023/09/20 04:42:20;;;;;;;11.40;3.25;;;16.10;99.90;;;;;;5159112;27;20122;-31
2023/09/20 04:44:46;;;;;;;13.18;4.03;;;16.10;99.90;;;;;;5157128;27;20471;-31
2023/09/20 04:47:14;;;;;;;12.32;3.42;;;16.00;99.90;;;;;;5157234;27;20047;-31
2023/09/20 04:49:40;;;;;;;10.25;3.50;;;15.90;99.90;;;;;;5156863;27;20118;-31
2023/09/20 04:52:09;;;;;;;11.52;3.83;;;15.90;99.90;;;;;;5158108;27;20150;-31
2023/09/20 04:54:35;;;;;;;11.68;4.35;;;15.80;99.90;;;;;;5157946;27;20468;-31
2023/09/20 04:57:01;;;;;;;9.32;3.22;;;15.80;99.90;;;;;;5157961;27;20121;-32
2023/09/20 04:59:27;;;;;;;12.25;3.45;;;15.70;99.90;;;;;;5157022;27;20058;-31
2023/09/20 05:01:52;;;;;;;12.52;3.85;;;15.60;99.90;;;;;;5157896;27;20125;-31
2023/09/20 05:04:20;;;;;;;10.20;3.50;;;15.60;99.90;;;;;;5158170;27;20039;-31
2023/09/20 05:06:45;;;;;;;11.88;4.22;;;15.50;99.90;;;;;;5158086;27;20061;-31
2023/09/20 05:09:12;;;;;;;13.40;3.70;;;15.50;99.90;;;;;;5156810;27;20046;-32
2023/09/20 05:11:38;;;;;;;11.32;3.88;;;15.40;99.90;;;;;;5157565;27;20051;-30
2023/09/20 05:14:05;;;;;;;9.65;3.10;;;15.40;99.90;;;;;;5158257;27;20049;-32
2023/09/20 05:16:31;;;;;;;10.35;3.78;;;15.40;99.90;;;;;;5156728;27;20150;-31
2023/09/20 05:18:57;;;;;;;11.52;3.38;;;15.40;99.90;;;;;;5157510;27;20046;-31
2023/09/20 05:21:23;;;;;;;11.77;3.75;;;15.40;99.90;;;;;;5139659;27;20043;-30
2023/09/20 05:23:49;;;;;;;9.88;3.58;;;15.40;99.90;;;;;;5157304;27;20078;-30
2023/09/20 05:26:14;;;;;;;15.32;3.30;;;15.40;99.90;;;;;;5156229;27;20038;-30
2023/09/20 05:28:40;;;;;;;11.15;3.83;;;15.40;99.90;;;;;;5156742;27;20078;-30
2023/09/20 05:31:06;;;;;;;12.93;4.15;;;15.40;99.90;;;;;;5156315;27;20564;-31
2023/09/20 05:33:32;;;;;;;14.05;3.40;;;15.40;99.90;;;;;;5157642;27;20054;-31
2023/09/20 05:36:01;;;;;;;14.98;4.43;;;15.40;99.90;;;;;;5157785;27;20091;-31
2023/09/20 05:38:27;;;;;;;7.07;3.42;;;15.40;99.90;;;;;;5157174;27;20434;-31
2023/09/20 05:40:53;;;;;;;9.15;3.47;;;15.40;99.90;;;;;;5157171;27;20093;-31
2023/09/20 05:43:19;;;;;;;9.23;3.15;;;15.40;99.90;;;;;;5156181;27;20043;-31
2023/09/20 05:45:45;;;;;;;11.43;3.80;;;15.40;99.90;;;;;;5157079;27;20049;-30
2023/09/20 05:48:12;;;;;;;10.05;3.55;;;15.30;99.90;;;;;;5156252;27;20046;-31
2023/09/20 05:50:38;;;;;;;8.55;3.58;;;15.30;99.90;;;;;;5156935;27;20043;-31
2023/09/20 05:53:06;;;;;;;8.10;3.83;;;15.40;99.90;;;;;;5155723;27;20043;-30
2023/09/20 05:55:36;;;;;;;11.20;3.40;;;15.40;99.90;;;;;;5156870;27;20404;-30
2023/09/20 05:58:02;;;;;;;11.82;4.22;;;15.50;99.90;;;;;;5156711;27;20083;-30
2023/09/20 06:00:29;;;;;;;10.23;3.08;;;15.50;99.90;;;;;;5157357;27;20050;-32
2023/09/20 06:02:57;;;;;;;6.35;3.30;;;15.60;99.90;;;;;;5157575;27;20047;-30
2023/09/20 06:05:24;;;;;;;10.55;3.10;;;15.60;99.90;;;;;;5156706;27;20121;-30
2023/09/20 06:07:51;;;;;;;10.88;3.85;;;15.60;99.90;;;;;;5155323;27;20042;-30
2023/09/20 06:10:18;;;;;;;10.85;3.45;;;15.60;99.90;;;;;;5156625;27;20038;-31
2023/09/20 06:12:47;;;;;;;10.60;3.22;;;15.70;99.90;;;;;;5156208;27;20389;-31
2023/09/20 06:15:13;;;;;;;11.95;3.90;;;15.70;99.90;;;;;;5156452;27;20050;-31
2023/09/20 06:17:39;;;;;;;6.78;2.42;;;15.70;99.90;;;;;;5156390;27;20049;-31
2023/09/20 06:20:09;;;;;;;10.23;3.85;;;15.70;99.90;;;;;;5154639;27;20053;-30
2023/09/20 06:22:35;;;;;;;7.72;3.00;;;15.70;99.90;;;;;;5156327;27;20484;-30
2023/09/20 06:25:04;;;;;;;9.57;3.00;;;15.70;99.90;;;;;;5156319;27;20053;-30
2023/09/20 06:27:30;;;;;;;11.13;3.40;;;15.80;99.90;;;;;;5156847;27;20046;-30
2023/09/20 06:30:00;;;;;;;10.73;3.03;;;15.80;99.90;;;;;;5156209;27;20126;-30
2023/09/20 06:32:25;;;;;;;11.32;3.05;;;15.80;99.90;;;;;;5156187;27;20055;-30
2023/09/20 06:34:51;;;;;;;10.88;3.15;;;15.80;99.90;;;;;;5156669;27;20047;-30
2023/09/20 06:37:17;;;;;;;8.13;3.40;;;15.80;99.90;;;;;;5155052;27;20065;-30
2023/09/20 06:39:44;;;;;;;9.65;2.63;;;15.90;99.90;;;;;;5156180;27;20146;-30
2023/09/20 06:42:10;;;;;;;6.88;2.90;;;15.90;99.90;;;;;;5154786;27;20042;-30
2023/09/20 06:44:38;;;;;;;8.85;2.63;;;15.90;99.90;;;;;;5156206;27;20050;-30
2023/09/20 06:47:06;;;;;;;7.85;3.00;;;15.90;99.90;;;;;;5155892;27;20121;-31
2023/09/20 06:49:32;;;;;;;5.32;2.30;;;16.00;99.90;;;;;;5155767;27;20050;-31
2023/09/20 06:52:01;;;;;;;6.32;2.55;;;16.00;99.90;;;;;;5155818;27;20049;-29
2023/09/20 06:54:28;;;;;;;8.90;2.97;;;16.00;99.90;;;;;;5155852;27;20042;-30
2023/09/20 06:57:02;;;;;;;7.40;2.80;;;16.00;99.90;;;;;;5154484;27;20069;-30
2023/09/20 06:59:27;;;;;;;5.88;2.33;;;16.00;99.90;;;;;;5155741;27;20047;-29
2023/09/20 07:01:55;;;;;;;6.50;2.53;;;16.10;99.90;;;;;;5155067;27;20034;-30
2023/09/20 07:04:21;;;;;;;10.00;2.70;;;16.10;99.90;;;;;;5155651;27;20089;-30
2023/09/20 07:06:47;;;;;;;6.07;2.58;;;16.10;99.90;;;;;;5155151;27;20107;-30
2023/09/20 07:09:13;;;;;;;5.82;2.30;;;16.20;99.90;;;;;;5154899;27;20050;-30
2023/09/20 07:11:38;;;;;;;9.60;3.17;;;16.20;99.90;;;;;;5154165;27;20085;-30
2023/09/20 07:14:05;;;;;;;6.47;2.25;;;16.20;99.90;;;;;;5155243;27;20069;-29
2023/09/20 07:16:33;;;;;;;6.72;2.40;;;16.20;99.90;;;;;;5154309;27;20148;-30
2023/09/20 07:19:05;;;;;;;6.18;2.00;;;16.30;99.90;;;;;;5155345;27;20542;-29
2023/09/20 07:21:37;;;;;;;11.57;2.65;;;16.30;99.90;;;;;;5138603;27;20074;-29
2023/09/20 07:24:03;;;;;;;8.52;2.65;;;16.40;99.90;;;;;;5155469;27;20047;-30
2023/09/20 07:26:29;;;;;;;4.95;2.05;;;16.50;99.90;;;;;;5154188;27;20099;-29
2023/09/20 07:28:55;;;;;;;8.35;2.28;;;16.50;99.90;;;;;;5154162;27;20042;-28
2023/09/20 07:31:21;;;;;;;8.27;2.28;;;16.50;99.90;;;;;;5155579;27;20049;-30
2023/09/20 07:33:48;;;;;;;6.88;2.60;;;16.60;99.90;;;;;;5137307;27;20061;-30
2023/09/20 07:36:15;;;;;;;9.48;2.45;;;16.60;99.90;;;;;;5155222;27;20527;-28
2023/09/20 07:38:41;;;;;;;6.10;2.50;;;16.60;99.90;;;;;;5155712;27;20047;-30
2023/09/20 07:41:08;;;;;;;10.48;2.35;;;16.60;99.90;;;;;;5155212;27;20043;-30
2023/09/20 07:43:37;;;;;;;5.05;2.00;;;16.60;99.90;;;;;;5155183;27;20420;-29
2023/09/20 07:46:06;;;;;;;9.43;2.78;;;16.70;99.90;;;;;;5154461;27;20052;-29
2023/09/20 07:48:33;;;;;;;9.77;2.88;;;16.70;99.90;;;;;;5155123;27;20512;-29
2023/09/20 07:50:59;;;;;;;8.57;2.63;;;16.80;99.90;;;;;;5155919;27;20049;-29
2023/09/20 07:53:26;;;;;;;9.60;2.50;;;16.90;99.90;;;;;;5159274;27;20042;-29
2023/09/20 07:56:06;;;;;;;7.43;2.28;;;16.90;99.90;;;;;;5159461;27;20504;-30
2023/09/20 07:58:32;;;;;;;4.97;2.42;;;17.00;99.90;;;;;;5159157;27;20035;-30
2023/09/20 08:00:59;;;;;;;5.32;2.00;;;17.10;99.90;;;;;;5159219;27;20047;-28
2023/09/20 08:03:28;;;;;;;4.60;1.95;;;17.10;99.90;;;;;;5159063;27;20557;-29
2023/09/20 08:05:55;;;;;;;8.35;3.30;;;17.30;99.90;;;;;;5158662;27;20396;-28
2023/09/20 08:08:20;;;;;;;5.93;2.58;;;17.50;99.90;;;;;;5159037;27;20081;-28
2023/09/20 08:10:46;;;;;;;7.15;2.40;;;17.70;99.90;;;;;;5158866;27;20396;-29
2023/09/20 08:13:12;;;;;;;8.07;3.05;;;17.90;99.90;;;;;;5158706;27;20111;-29
2023/09/20 08:15:44;;;;;;;9.52;2.90;;;18.10;99.90;;;;;;5158832;27;20054;-29
2023/09/20 08:20:56;;;;;;;10.35;2.38;;;18.00;99.90;;;;;;5159109;27;20383;-28
2023/09/20 09:02:16;;;;;;;6.78;2.80;;;17.40;99.90;;;;;;5157386;27;20069;-27
2023/09/20 09:04:47;;;;;;;6.60;2.55;;;17.40;99.90;;;;;;5158458;27;20082;-28
2023/09/20 09:07:13;;;;;;;11.38;3.13;;;17.40;99.90;;;;;;5158418;27;20046;-29
2023/09/20 09:09:40;;;;;;;8.90;2.35;;;17.30;99.90;;;;;;5156519;27;20114;-28
2023/09/20 09:12:07;;;;;;;8.68;2.88;;;17.30;99.90;;;;;;5156212;27;20054;-28
2023/09/20 09:14:36;;;;;;;10.70;3.28;;;17.30;99.90;;;;;;5158072;27;20050;-28
2023/09/20 09:17:04;;;;;;;9.52;3.80;;;17.40;99.90;;;;;;5157575;27;20046;-27
2023/09/20 09:19:29;;;;;;;8.35;3.00;;;17.50;99.90;;;;;;5158424;27;20058;-28
2023/09/20 09:21:59;;;;;;;7.18;3.05;;;17.50;99.90;;;;;;5157420;27;20046;-27
2023/09/20 09:24:25;;;;;;;8.20;3.20;;;17.50;99.90;;;;;;5157276;27;20492;-29
2023/09/20 09:27:06;;;;;;;5.78;2.80;;;17.50;99.90;;;;;;5157460;27;20430;-28
2023/09/20 09:29:32;;;;;;;8.52;3.08;;;17.50;99.90;;;;;;5157417;27;20043;-27
2023/09/20 09:32:01;;;;;;;5.57;2.85;;;17.70;99.90;;;;;;5157931;27;20066;-27
2023/09/20 09:34:28;;;;;;;6.43;3.10;;;17.70;99.90;;;;;;5157313;27;20125;-27
2023/09/20 09:36:54;;;;;;;10.80;3.67;;;17.70;99.90;;;;;;5139691;27;20381;-28
2023/09/20 09:39:20;;;;;;;8.63;3.08;;;17.80;99.90;;;;;;5155982;27;20046;-27
2023/09/20 09:41:46;;;;;;;6.20;3.40;;;17.90;99.90;;;;;;5155909;27;20059;-28
2023/09/20 09:44:16;;;;;;;12.90;3.15;;;17.90;99.90;;;;;;5157985;27;20038;-27
2023/09/20 09:46:43;;;;;;;6.25;2.55;;;18.00;99.90;;;;;;5157983;27;20086;-27
2023/09/20 09:49:12;;;;;;;5.57;3.13;;;18.00;99.90;;;;;;5157030;27;20039;-28
2023/09/20 09:51:52;;;;;;;8.57;3.10;;;18.00;99.90;;;;;;5156856;27;20046;-27
2023/09/20 09:54:24;;;;;;;9.98;3.70;;;18.20;99.90;;;;;;5157535;27;20137;-28
2023/09/20 09:56:50;;;;;;;8.57;2.92;;;18.30;99.90;;;;;;5156769;27;20061;-28
2023/09/20 09:59:16;;;;;;;5.72;3.08;;;18.30;99.90;;;;;;5155767;27;20050;-27
2023/09/20 10:01:44;;;;;;;7.80;3.20;;;18.40;99.90;;;;;;5156797;27;20078;-27
2023/09/20 10:04:10;;;;;;;8.02;3.22;;;18.40;99.90;;;;;;5156735;27;20086;-28
2023/09/20 10:07:16;;;;;;;8.25;3.40;;;18.30;99.90;;;;;;5157492;27;20085;-28
2023/09/20 10:09:48;;;;;;;8.55;3.30;;;18.40;99.90;;;;;;5156229;27;20051;-27
2023/09/20 10:12:15;;;;;;;6.30;3.20;;;18.30;99.90;;;;;;5155145;27;20051;-28
2023/09/20 10:14:43;;;;;;;6.05;3.10;;;18.20;99.90;;;;;;5156098;27;20049;-28
2023/09/20 10:17:14;;;;;;;6.25;3.53;;;18.10;99.90;;;;;;5156396;27;20046;-27
2023/09/20 10:19:39;;;;;;;6.53;3.45;;;18.10;99.90;;;;;;5155793;27;20057;-27
2023/09/20 10:22:09;;;;;;;6.00;3.20;;;18.10;99.90;;;;;;5156365;27;20046;-27
2023/09/20 10:24:58;;;;;;;7.28;3.25;;;18.20;99.90;;;;;;5156377;27;20085;-27
2023/09/20 10:27:31;;;;;;;5.90;3.22;;;18.10;28.80;;;;;;5156386;27;20148;-27
2023/09/20 10:30:05;;;;;;;7.18;3.25;;;18.20;99.90;;;;;;5156840;27;20404;-27
2023/09/20 10:32:57;;;;;;;5.90;3.35;;;18.20;99.90;;;;;;5156159;27;20050;-28
2023/09/20 10:35:29;;;;;;;8.32;3.47;;;18.30;99.90;;;;;;5154991;27;20481;-27
2023/09/20 10:38:07;;;;;;;7.60;3.65;;;18.20;99.90;;;;;;5156394;27;20042;-27
2023/09/20 10:41:05;;;;;;;7.88;4.35;;;18.20;99.90;;;;;;5155106;27;20484;-28
2023/09/20 10:43:37;;;;;;;5.25;3.60;;;18.10;99.90;;;;;;5139701;27;20488;-27
2023/09/20 10:46:07;;;;;;;5.28;3.00;;;18.30;99.90;;;;;;5155903;27;20046;-27
2023/09/20 10:48:33;;;;;;;5.07;3.20;;;18.30;99.90;;;;;;5155930;27;20054;-27
2023/09/20 10:51:03;;;;;;;6.30;2.90;;;18.30;99.90;;;;;;5155796;27;20042;-26
2023/09/20 10:53:52;;;;;;;7.47;3.40;;;18.30;99.90;;;;;;5155790;27;20039;-27
2023/09/20 10:56:52;;;;;;;7.63;3.50;;;18.10;51.00;;;;;;5155266;27;20082;-27
2023/09/20 10:59:25;;;;;;;5.80;2.95;;;18.00;99.90;;;;;;5155596;27;20061;-27
2023/09/20 11:01:58;;;;;;;8.82;3.88;;;18.00;99.90;;;;;;5155726;27;20050;-27
2023/09/20 11:04:28;;;;;;;;;;;18.00;99.90;;;;;;5156131;27;20110;-26
2023/09/20 11:06:55;;;;;;;10.32;3.65;;;18.00;99.90;;;;;;5155675;27;19962;-27
2023/09/20 11:09:23;;;;;;;5.20;3.42;;;18.10;99.90;;;;;;5154901;27;20459;-28
2023/09/20 11:11:49;;;;;;;6.53;3.28;;;18.10;99.90;;;;;;5155419;27;20086;-27
2023/09/20 11:14:14;;;;;;;4.00;3.03;;;18.10;99.90;;;;;;5156125;27;20078;-26
2023/09/20 11:16:42;;;;;;;4.75;3.00;;;18.10;99.90;;;;;;5155474;27;20488;-26
2023/09/20 11:19:12;;;;;;;6.40;3.65;;;18.20;99.90;;;;;;5155647;27;20046;-27
2023/09/20 11:21:42;;;;;;;5.53;3.83;;;18.20;99.90;;;;;;5155464;27;20054;-27
2023/09/20 11:24:12;;;;;;;4.25;3.08;;;18.30;99.90;;;;;;5155178;27;20125;-26
2023/09/20 11:26:45;;;;;;;5.03;3.10;;;18.30;99.90;;;;;;5154711;27;20121;-27
2023/09/20 11:29:11;;;;;;;;;;;18.30;99.90;;;;;;5155807;27;20092;-26
2023/09/20 11:31:38;;;;;;;5.97;3.40;;;18.30;98.60;;;;;;5154408;27;20022;-26
2023/09/20 11:34:05;;;;;;;6.93;2.65;;;18.30;99.90;;;;;;5155319;27;20072;-26
2023/09/20 11:36:43;;;;;;;5.97;3.13;;;18.30;99.90;;;;;;5155290;27;20092;-26
2023/09/20 11:39:08;;;;;;;6.65;2.55;;;18.40;99.90;;;;;;5155242;27;20039;-26
2023/09/20 11:41:38;;;;;;;10.07;3.30;;;18.50;99.90;;;;;;5155797;27;20130;-26
2023/09/20 11:44:06;;;;;;;6.43;2.72;;;18.50;99.90;;;;;;5155208;27;20047;-26
2023/09/20 11:46:36;;;;;;;5.90;2.50;;;18.50;99.90;;;;;;5155789;27;20102;-26
2023/09/20 11:49:04;;;;;;;4.30;2.58;;;18.50;99.90;;;;;;5154182;27;20392;-26
2023/09/20 11:51:32;;;;;;;9.25;2.90;;;18.70;99.90;;;;;;5155026;27;20425;-27
2023/09/20 11:53:59;;;;;;;5.05;2.22;;;18.80;47.30;;;;;;5155112;27;20053;-27
2023/09/20 11:56:32;;;;;;;6.53;2.15;;;18.80;1.00;;;;;;5155084;27;20082;-26
2023/09/20 11:58:59;;;;;;;5.10;2.33;;;18.90;1.00;;;;;;5155918;27;20049;-26
2023/09/20 12:01:29;;;;;;;10.32;2.63;;;19.00;1.00;;;;;;5155051;27;20051;-27
2023/09/20 12:03:58;;;;;;;3.83;2.70;;;19.10;1.00;;;;;;5155107;27;20049;-26
2023/09/20 12:06:24;;;;;;;6.60;2.70;;;19.10;1.00;;;;;;5155041;27;20051;-26
2023/09/20 12:08:53;;;;;;;8.25;2.95;;;19.10;1.00;;;;;;5154711;27;20126;-26
2023/09/20 12:11:19;;;;;;;4.13;2.83;;;18.90;99.90;;;;;;5153982;27;20068;-28
2023/09/20 12:13:46;;;;;;;5.43;3.53;;;18.70;1.00;;;;;;5153276;27;20523;-26
2023/09/20 12:16:14;;;;;;;8.07;3.30;;;18.60;1.00;;;;;;5154916;27;20115;-26
2023/09/20 12:18:40;;;;;;;6.15;3.10;;;18.60;1.00;;;;;;5154895;27;20039;-27
2023/09/20 12:21:08;;;;;;;4.78;2.95;;;18.60;19.10;;;;;;5154842;27;20130;-26
2023/09/20 12:23:41;;;;;;;5.82;3.92;;;18.50;1.00;;;;;;5136593;27;20051;-26
2023/09/20 12:26:08;;;;;;;10.15;3.88;;;18.40;69.20;;;;;;5155716;27;20043;-26
2023/09/20 12:28:34;;;;;;;5.60;3.47;;;18.40;78.60;;;;;;5153892;27;20061;-27
2023/09/20 12:31:00;;;;;;;4.50;3.55;;;18.40;99.90;;;;;;5154841;27;20050;-26
2023/09/20 12:33:27;;;;;;;7.15;3.38;;;18.50;99.90;;;;;;5153853;27;20079;-26
2023/09/20 12:35:54;;;;;;;6.82;3.58;;;18.50;99.90;;;;;;5154584;27;20484;-26
2023/09/20 12:38:20;;;;;;;5.50;4.07;;;18.60;7.70;;;;;;5158464;27;20038;-26
2023/09/20 12:40:47;;;;;;;4.47;3.47;;;18.60;1.00;;;;;;5158437;27;20434;-26
2023/09/20 12:43:15;;;;;;;7.63;4.50;;;18.70;22.00;;;;;;5158897;27;20053;-26
2023/09/20 12:45:43;;;;;;;5.20;3.85;;;18.70;15.60;;;;;;5157155;27;20058;-27
2023/09/20 12:48:09;;;;;;;6.35;3.50;;;18.60;1.00;;;;;;5157131;27;20039;-26
2023/09/20 12:50:37;;;;;;;4.05;3.45;;;18.60;33.50;;;;;;5157402;27;20404;-26
2023/09/20 12:53:08;;;;;;;8.07;4.03;;;18.60;18.70;;;;;;5158158;27;20053;-26
2023/09/20 12:55:42;;;;;;;7.70;3.78;;;18.70;3.90;;;;;;5158230;27;20061;-27
2023/09/20 12:58:10;;;;;;;6.03;3.95;;;18.80;1.00;;;;;;5158049;27;20038;-26
2023/09/20 13:00:37;;;;;;;11.98;4.07;;;19.00;20.60;;;;;;5158878;27;20139;-26
2023/09/20 13:03:06;;;;;;;6.82;3.20;;;19.00;66.90;;;;;;5157974;27;20054;-26
2023/09/20 13:05:32;;;;;;;6.70;3.17;;;19.10;1.00;;;;;;5157817;27;20115;-26
2023/09/20 13:07:59;;;;;;;7.07;2.90;;;19.10;27.70;;;;;;5157934;27;20074;-26
2023/09/20 13:10:29;;;;;;;5.30;2.72;;;19.20;70.80;;;;;;5157845;27;20046;-26
2023/09/20 13:12:54;;;;;;;5.47;2.50;;;19.20;1.00;;;;;;5158042;27;20376;-26
2023/09/20 13:15:21;;;;;;;4.80;2.85;;;19.30;1.00;;;;;;5157455;27;20047;-26
2023/09/20 13:17:55;;;;;;;5.60;2.55;;;19.30;1.00;;;;;;5157184;27;20464;-26
2023/09/20 13:20:24;;;;;;;5.50;2.55;;;19.50;1.00;;;;;;5158265;27;20046;-27
2023/09/20 13:22:56;;;;;;;6.18;2.78;;;19.80;1.00;;;;;;5157671;27;20120;-26
2023/09/20 13:25:22;;;;;;;6.38;2.97;;;19.90;99.90;;;;;;5157565;27;20099;-26
2023/09/20 13:27:49;;;;;;;6.97;2.70;;;19.90;99.90;;;;;;5158066;27;20039;-26
2023/09/20 13:30:17;;;;;;;6.38;2.20;;;19.90;99.90;;;;;;5157414;27;20548;-25